Zealand Delilah — PBZI — position and weather

sailwx.info

Track history (hours):
 
Tides and Currents Weather Stations Pressure Air Temp Water Temp Dewpoint Dewpoint Depression Visibility Wind Speed Wind Dir Waves Ship Positions

Zealand Delilah

Last reported at 2016-Dec-23 14:22 UTC. Time now 2017-Jan-24 04:59 UTC.
Position N 36°29' E 014°39'.
Warning: this ship's position is 31 days out of date.

Length 134 m; draft 5.6 m.

Type: Ship. MMSI: 245935000.

Date/timePositionNaut miles runAvg speedWind from/ knotsBaromVisibWave heightAir tempDewpointWater temp
2016-Dec-23 14:22N 36°29' E 014°39'1012.3
2016-Dec-23 13:33N 36°31' E 014°26'1212.5
2016-Dec-23 12:33N 36°36' E 014°12'1312.6
2016-Dec-23 11:33N 36°40' E 013°57'  
2016-Dec-20 05:33N 36°00' W 005°17'  
2016-Dec-16 16:27N 35°59' W 005°31'8 9.4
2016-Dec-16 15:34N 36°01' W 005°21'13810.6
2016-Dec-16 02:32N 36°24' W 002°32'1211.6
2016-Dec-16 01:27N 36°26' W 002°16'2311.5
2016-Dec-15 23:27N 36°39' W 001°53'1111.2
2016-Dec-15 22:31N 36°46' W 001°43'  
Track history (hours):
 
Tides and Currents Weather Stations Pressure Air Temp Water Temp Dewpoint Dewpoint Depression Visibility Wind Speed Wind Dir Waves Ship Positions

Zealand Delilah

Last reported at 2016-Dec-23 14:22 UTC. Time now 2017-Jan-24 04:59 UTC.
Position N 36°29' E 014°39'.
Warning: this ship's position is 31 days out of date.

Length 134 m; draft 5.6 m.

Type: Ship. MMSI: 245935000.

Date/timePositionNaut miles runAvg speedWind from/ knotsBaromVisibWave heightAir tempDewpointWater temp
2016-Dec-23 14:22N 36°29' E 014°39'1012.3
2016-Dec-23 13:33N 36°31' E 014°26'1212.5
2016-Dec-23 12:33N 36°36' E 014°12'1312.6
2016-Dec-23 11:33N 36°40' E 013°57'  
2016-Dec-20 05:33N 36°00' W 005°17'  
2016-Dec-16 16:27N 35°59' W 005°31'8 9.4
2016-Dec-16 15:34N 36°01' W 005°21'13810.6
2016-Dec-16 02:32N 36°24' W 002°32'1211.6
2016-Dec-16 01:27N 36°26' W 002°16'2311.5
2016-Dec-15 23:27N 36°39' W 001°53'1111.2
2016-Dec-15 22:31N 36°46' W 001°43'  

Dump ship's entire track history